createdAt,value
2024-01-07T00:00:17.774Z,8.16
2024-01-07T00:01:20.531Z,8.16
2024-01-07T00:02:23.418Z,8.16
2024-01-07T00:03:26.276Z,8.15
2024-01-07T00:04:29.193Z,8.15
2024-01-07T00:05:34.451Z,8.15
2024-01-07T00:06:40.397Z,8.15
2024-01-07T00:07:43.132Z,8.15
2024-01-07T00:08:45.944Z,8.15
2024-01-07T00:09:48.797Z,8.15
2024-01-07T00:10:53.100Z,8.15
2024-01-07T00:11:56.650Z,8.15
2024-01-07T00:12:59.486Z,8.15
2024-01-07T00:14:02.637Z,8.15
2024-01-07T00:15:05.718Z,8.15
2024-01-07T00:16:08.481Z,8.15
2024-01-07T00:17:11.741Z,8.15
2024-01-07T00:18:14.610Z,8.15
2024-01-07T00:19:17.520Z,8.15
2024-01-07T00:20:20.279Z,8.15
2024-01-07T00:21:23.065Z,8.15
2024-01-07T00:22:26.208Z,8.15
2024-01-07T00:23:28.972Z,8.15
2024-01-07T00:24:31.731Z,8.15
2024-01-07T00:25:34.408Z,8.15
2024-01-07T00:26:37.149Z,8.15
2024-01-07T00:27:39.850Z,8.15
2024-01-07T00:28:42.608Z,8.15
2024-01-07T00:29:46.019Z,8.15
2024-01-07T00:30:48.976Z,8.14
2024-01-07T00:31:51.874Z,8.13
2024-01-07T00:32:54.867Z,8.13
2024-01-07T00:33:57.844Z,8.13
2024-01-07T00:35:03.664Z,8.12
2024-01-07T00:36:06.516Z,8.12
2024-01-07T00:37:09.291Z,8.12
2024-01-07T00:38:12.026Z,8.12
2024-01-07T00:39:14.728Z,8.11
2024-01-07T00:40:17.618Z,8.11
2024-01-07T00:41:20.436Z,8.11
2024-01-07T00:42:23.235Z,8.11
2024-01-07T00:43:25.987Z,8.11
2024-01-07T00:44:28.792Z,8.11
2024-01-07T00:45:31.584Z,8.10
2024-01-07T00:46:34.347Z,8.10
2024-01-07T00:47:37.114Z,8.09
2024-01-07T00:48:40.043Z,8.09
2024-01-07T00:49:42.966Z,8.09
2024-01-07T00:50:45.790Z,8.09
2024-01-07T00:51:48.549Z,8.09
2024-01-07T00:52:51.269Z,8.09
2024-01-07T00:53:54.005Z,8.09
2024-01-07T00:54:56.711Z,8.09
2024-01-07T00:55:59.467Z,8.09
2024-01-07T00:57:02.288Z,8.09
2024-01-07T00:58:05.271Z,8.10
2024-01-07T00:59:08.100Z,8.10
2024-01-07T01:00:11.496Z,8.10
2024-01-07T01:01:14.851Z,8.11
2024-01-07T01:02:19.992Z,8.11
2024-01-07T01:03:23.089Z,8.12
2024-01-07T01:04:26.208Z,8.12
2024-01-07T01:05:29.161Z,8.13
2024-01-07T01:06:32.017Z,8.13
2024-01-07T01:07:34.800Z,8.13
2024-01-07T01:08:37.550Z,8.13
2024-01-07T01:09:40.288Z,8.13
2024-01-07T01:10:43.021Z,8.13
2024-01-07T01:11:45.912Z,8.13
2024-01-07T01:12:48.798Z,8.13
2024-01-07T01:13:51.912Z,8.13
2024-01-07T01:14:54.620Z,8.14
2024-01-07T01:15:57.399Z,8.14
2024-01-07T01:17:00.379Z,8.14
2024-01-07T01:18:03.229Z,8.14
2024-01-07T01:19:06.233Z,8.14
2024-01-07T01:20:09.894Z,8.14
2024-01-07T01:21:14.161Z,8.14
2024-01-07T01:22:17.155Z,8.14
2024-01-07T01:23:19.947Z,8.15
2024-01-07T01:24:22.770Z,8.15
2024-01-07T01:25:25.574Z,8.15
2024-01-07T01:26:28.384Z,8.15
2024-01-07T01:27:31.109Z,8.15
2024-01-07T01:28:33.805Z,8.15
2024-01-07T01:29:36.538Z,8.15
2024-01-07T01:30:39.351Z,8.15
2024-01-07T01:31:42.308Z,8.15
2024-01-07T01:32:45.592Z,8.15
2024-01-07T01:33:48.444Z,8.15
2024-01-07T01:34:51.335Z,8.15
2024-01-07T01:35:54.072Z,8.15
2024-01-07T01:36:56.779Z,8.14
2024-01-07T01:37:59.482Z,8.14
2024-01-07T01:39:02.246Z,8.14
2024-01-07T01:40:05.740Z,8.15
2024-01-07T01:41:10.602Z,8.15
2024-01-07T01:42:13.364Z,8.15
2024-01-07T01:43:24.009Z,8.15
2024-01-07T01:44:29.117Z,8.15
2024-01-07T01:45:31.822Z,8.15
2024-01-07T01:46:34.673Z,8.15
2024-01-07T01:47:37.435Z,8.15
2024-01-07T01:48:41.855Z,8.15
2024-01-07T01:49:46.805Z,8.15
2024-01-07T01:50:50.327Z,8.15
2024-01-07T01:51:54.306Z,8.15
2024-01-07T01:52:57.508Z,8.15
2024-01-07T01:54:01.521Z,8.15
2024-01-07T01:55:04.885Z,8.15
2024-01-07T01:56:11.192Z,8.15
2024-01-07T01:57:18.089Z,8.15
2024-01-07T01:58:22.985Z,8.14
2024-01-07T01:59:26.907Z,8.14
2024-01-07T02:00:29.670Z,8.14
2024-01-07T02:01:32.935Z,8.14
2024-01-07T02:02:36.145Z,8.14
2024-01-07T02:03:38.983Z,8.14
2024-01-07T02:04:42.532Z,8.14
2024-01-07T02:05:46.179Z,8.14
2024-01-07T02:06:49.088Z,8.14
2024-01-07T02:07:53.208Z,8.14
2024-01-07T02:08:56.495Z,8.14
2024-01-07T02:09:59.360Z,8.14
2024-01-07T02:11:19.041Z,8.14
2024-01-07T02:12:21.860Z,8.13
2024-01-07T02:13:27.304Z,8.13
2024-01-07T02:14:30.066Z,8.13
2024-01-07T02:15:35.013Z,8.13
2024-01-07T02:16:37.792Z,8.13
2024-01-07T02:17:40.741Z,8.12
2024-01-07T02:18:45.410Z,8.12
2024-01-07T02:19:48.360Z,8.11
2024-01-07T02:20:51.253Z,8.11
2024-01-07T02:21:54.156Z,8.11
2024-01-07T02:22:58.849Z,8.10
2024-01-07T02:24:05.432Z,8.10
2024-01-07T02:25:09.841Z,8.09
2024-01-07T02:26:12.757Z,8.09
2024-01-07T02:27:15.522Z,8.08
2024-01-07T02:28:18.259Z,8.08
2024-01-07T02:29:21.085Z,8.07
2024-01-07T02:30:24.457Z,8.07
2024-01-07T02:31:27.303Z,8.06
2024-01-07T02:32:33.525Z,8.06
2024-01-07T02:33:36.413Z,8.06
2024-01-07T02:34:39.403Z,8.06
2024-01-07T02:35:42.198Z,8.06
2024-01-07T02:36:45.253Z,8.05
2024-01-07T02:37:47.977Z,8.04
2024-01-07T02:38:50.683Z,7.96
2024-01-07T02:40:00.680Z,7.96
2024-01-07T02:41:04.953Z,7.97
2024-01-07T02:42:07.742Z,7.97
2024-01-07T02:43:10.565Z,7.97
2024-01-07T02:44:13.752Z,7.97
2024-01-07T02:45:16.636Z,7.97
2024-01-07T02:46:20.496Z,7.97
2024-01-07T02:47:23.306Z,7.98
2024-01-07T02:48:26.265Z,7.98
2024-01-07T02:49:32.536Z,7.98
2024-01-07T02:50:35.314Z,7.98
2024-01-07T02:51:38.057Z,7.99
2024-01-07T02:52:40.786Z,7.99
2024-01-07T02:53:43.475Z,7.98
2024-01-07T02:54:46.256Z,7.98
2024-01-07T02:55:49.060Z,7.98
2024-01-07T02:56:51.856Z,7.98
2024-01-07T02:57:54.686Z,7.99
2024-01-07T02:58:57.453Z,7.99
2024-01-07T03:00:00.215Z,7.99
2024-01-07T03:01:03.731Z,7.99
2024-01-07T03:02:06.689Z,7.99
2024-01-07T03:03:09.534Z,7.99
2024-01-07T03:04:14.229Z,7.99
2024-01-07T03:05:17.126Z,8.00
2024-01-07T03:06:19.947Z,8.00
2024-01-07T03:07:22.671Z,8.00
2024-01-07T03:08:25.363Z,8.01
2024-01-07T03:09:28.117Z,8.01
2024-01-07T03:10:30.875Z,8.01
2024-01-07T03:11:33.594Z,8.02
2024-01-07T03:12:38.899Z,8.02
2024-01-07T03:13:44.653Z,8.02
2024-01-07T03:14:49.100Z,8.02
2024-01-07T03:15:51.888Z,8.02
2024-01-07T03:16:54.672Z,8.03
2024-01-07T03:17:58.853Z,8.03
2024-01-07T03:19:03.337Z,8.03
2024-01-07T03:20:06.739Z,8.03
2024-01-07T03:21:20.942Z,8.03
2024-01-07T03:22:30.437Z,8.03
2024-01-07T03:23:37.482Z,8.03
2024-01-07T03:24:40.242Z,8.04
2024-01-07T03:25:42.989Z,8.04
2024-01-07T03:26:45.696Z,8.04
2024-01-07T03:27:48.495Z,8.03
2024-01-07T03:28:51.236Z,8.04
2024-01-07T03:29:53.929Z,8.04
2024-01-07T03:30:56.753Z,8.04
2024-01-07T03:31:59.576Z,8.04
2024-01-07T03:33:02.459Z,8.03
2024-01-07T03:34:05.543Z,8.03
2024-01-07T03:35:09.919Z,8.04
2024-01-07T03:36:14.312Z,8.04
2024-01-07T03:37:18.325Z,8.04
2024-01-07T03:38:21.010Z,8.04
2024-01-07T03:39:24.073Z,8.04
2024-01-07T03:40:26.864Z,8.04
2024-01-07T03:41:29.515Z,8.04
2024-01-07T03:42:32.334Z,8.05
2024-01-07T03:43:35.265Z,8.05
2024-01-07T03:44:38.325Z,8.05
2024-01-07T03:45:41.103Z,8.06
2024-01-07T03:46:43.882Z,8.06
2024-01-07T03:47:47.027Z,8.06
2024-01-07T03:48:50.180Z,8.06
2024-01-07T03:49:55.290Z,8.06
2024-01-07T03:50:58.099Z,8.07
2024-01-07T03:52:00.908Z,8.07
2024-01-07T03:53:03.703Z,8.07
2024-01-07T03:54:06.760Z,8.08
2024-01-07T03:55:09.625Z,8.08
2024-01-07T03:56:12.432Z,8.08
2024-01-07T03:57:18.161Z,8.08
2024-01-07T03:58:20.926Z,8.08
2024-01-07T03:59:24.506Z,8.09
2024-01-07T04:00:27.500Z,8.09
2024-01-07T04:01:30.251Z,8.10
2024-01-07T04:02:35.793Z,8.10
2024-01-07T04:03:39.514Z,8.10
2024-01-07T04:04:42.455Z,8.10
2024-01-07T04:05:48.152Z,8.10
2024-01-07T04:06:51.446Z,8.10
2024-01-07T04:07:55.350Z,8.10
2024-01-07T04:08:58.050Z,8.11
2024-01-07T04:10:00.818Z,8.11
2024-01-07T04:11:04.412Z,8.11
2024-01-07T04:12:07.367Z,8.11
2024-01-07T04:13:10.127Z,8.11
2024-01-07T04:14:16.187Z,8.11
2024-01-07T04:15:18.959Z,8.11
2024-01-07T04:16:22.079Z,8.11
2024-01-07T04:17:25.420Z,8.11
2024-01-07T04:18:28.317Z,8.12
2024-01-07T04:19:31.341Z,8.12
2024-01-07T04:20:34.176Z,8.12
2024-01-07T04:21:37.139Z,8.12
2024-01-07T04:22:39.962Z,8.11
2024-01-07T04:23:42.646Z,8.11
2024-01-07T04:24:45.596Z,8.11
2024-01-07T04:25:48.412Z,8.11
2024-01-07T04:26:51.061Z,8.11
2024-01-07T04:27:54.057Z,8.11
2024-01-07T04:28:56.800Z,8.11
2024-01-07T04:29:59.608Z,8.11
2024-01-07T04:31:02.612Z,8.11
2024-01-07T04:32:05.533Z,8.12
2024-01-07T04:33:08.463Z,8.12
2024-01-07T04:34:11.438Z,8.13
2024-01-07T04:35:15.080Z,8.13
2024-01-07T04:36:17.735Z,8.13
2024-01-07T04:37:20.439Z,8.13
2024-01-07T04:38:23.167Z,8.13
2024-01-07T04:39:25.988Z,8.13
2024-01-07T04:40:28.691Z,8.14
2024-01-07T04:41:31.402Z,8.14
2024-01-07T04:42:34.239Z,8.14
2024-01-07T04:43:38.084Z,8.14
2024-01-07T04:44:41.062Z,8.14
2024-01-07T04:45:43.934Z,8.14
2024-01-07T04:46:48.998Z,8.14
2024-01-07T04:47:51.841Z,8.14
2024-01-07T04:48:54.683Z,8.14
2024-01-07T04:49:58.287Z,8.14
2024-01-07T04:51:01.422Z,8.15
2024-01-07T04:52:04.682Z,8.15
2024-01-07T04:53:07.415Z,8.15
2024-01-07T04:54:10.130Z,8.15
2024-01-07T04:55:13.110Z,8.15
2024-01-07T04:56:18.898Z,8.15
2024-01-07T04:57:22.606Z,8.15
2024-01-07T04:58:25.333Z,8.15
2024-01-07T04:59:28.173Z,8.15
2024-01-07T05:00:32.793Z,8.15
2024-01-07T05:01:36.548Z,8.15
2024-01-07T05:02:39.310Z,8.15
2024-01-07T05:03:44.390Z,8.15
2024-01-07T05:04:49.578Z,8.14
2024-01-07T05:05:52.314Z,8.14
2024-01-07T05:06:55.078Z,8.15
2024-01-07T05:08:00.340Z,8.15
2024-01-07T05:09:03.748Z,8.15
2024-01-07T05:10:06.934Z,8.15
2024-01-07T05:11:09.846Z,8.14
2024-01-07T05:12:12.644Z,8.14
2024-01-07T05:13:15.403Z,8.15
2024-01-07T05:14:18.123Z,8.15
2024-01-07T05:15:20.850Z,8.14
2024-01-07T05:16:23.592Z,8.14
2024-01-07T05:17:26.350Z,8.14
2024-01-07T05:18:29.158Z,8.14
2024-01-07T05:19:32.030Z,8.14
2024-01-07T05:20:34.741Z,8.14
2024-01-07T05:21:37.591Z,8.14
2024-01-07T05:22:40.339Z,8.14
2024-01-07T05:23:43.082Z,8.14
2024-01-07T05:24:45.884Z,8.15
2024-01-07T05:25:48.627Z,8.15
2024-01-07T05:26:51.256Z,8.14
2024-01-07T05:27:54.145Z,8.14
2024-01-07T05:28:57.460Z,8.14
2024-01-07T05:30:00.359Z,8.14
2024-01-07T05:31:03.316Z,8.15
2024-01-07T05:32:06.714Z,8.15
2024-01-07T05:33:09.590Z,8.15
2024-01-07T05:34:12.788Z,8.16
2024-01-07T05:35:15.689Z,8.16
2024-01-07T05:36:18.370Z,8.16
2024-01-07T05:37:21.107Z,8.17
2024-01-07T05:38:23.906Z,8.17
2024-01-07T05:39:26.681Z,8.18
2024-01-07T05:40:31.785Z,8.18
2024-01-07T05:41:34.669Z,8.19
2024-01-07T05:42:37.389Z,8.19
2024-01-07T05:43:40.163Z,8.19
2024-01-07T05:44:43.464Z,8.19
2024-01-07T05:45:46.140Z,8.20
2024-01-07T05:46:48.826Z,8.21
2024-01-07T05:47:51.848Z,8.21
2024-01-07T05:48:54.682Z,8.22
2024-01-07T05:49:57.446Z,8.22
2024-01-07T05:51:03.974Z,8.22
2024-01-07T05:52:06.722Z,8.22
2024-01-07T05:53:09.477Z,8.23
2024-01-07T05:54:12.136Z,8.24
2024-01-07T05:55:15.359Z,8.24
2024-01-07T05:56:18.096Z,8.24
2024-01-07T05:57:20.815Z,8.24
2024-01-07T05:58:23.516Z,8.24
2024-01-07T05:59:26.180Z,8.25
2024-01-07T06:00:28.908Z,8.25
2024-01-07T06:01:32.063Z,8.25
2024-01-07T06:02:36.061Z,8.25
2024-01-07T06:03:40.489Z,8.26
2024-01-07T06:04:46.326Z,8.26
2024-01-07T06:05:49.277Z,8.26
2024-01-07T06:06:54.412Z,8.26
2024-01-07T06:07:57.742Z,8.26
2024-01-07T06:09:00.719Z,8.26
2024-01-07T06:10:03.743Z,8.26
2024-01-07T06:11:06.694Z,8.26
2024-01-07T06:12:09.425Z,8.26
2024-01-07T06:13:12.229Z,8.27
2024-01-07T06:14:15.273Z,8.27
2024-01-07T06:15:18.407Z,8.27
2024-01-07T06:16:21.169Z,8.27
2024-01-07T06:17:23.871Z,8.27
2024-01-07T06:18:26.791Z,8.27
2024-01-07T06:19:31.309Z,8.28
2024-01-07T06:20:34.133Z,8.28
2024-01-07T06:21:36.893Z,8.28
2024-01-07T06:22:39.671Z,8.28
2024-01-07T06:23:42.425Z,8.28
2024-01-07T06:24:45.149Z,8.27
2024-01-07T06:25:47.840Z,8.27
2024-01-07T06:26:50.688Z,8.27
2024-01-07T06:27:53.517Z,8.27
2024-01-07T06:28:56.279Z,8.28
2024-01-07T06:29:59.000Z,8.27
2024-01-07T06:31:04.661Z,8.27
2024-01-07T06:32:07.833Z,8.27
2024-01-07T06:33:10.768Z,8.26
2024-01-07T06:34:16.554Z,8.26
2024-01-07T06:35:19.488Z,8.26
2024-01-07T06:36:24.720Z,8.26
2024-01-07T06:37:30.143Z,8.26
2024-01-07T06:38:35.346Z,8.26
2024-01-07T06:39:39.046Z,8.26
2024-01-07T06:40:41.892Z,8.26
2024-01-07T06:41:44.582Z,8.26
2024-01-07T06:42:48.953Z,8.26
2024-01-07T06:43:54.815Z,8.26
2024-01-07T06:44:57.579Z,8.26
2024-01-07T06:46:00.334Z,8.26
2024-01-07T06:47:03.588Z,8.27
2024-01-07T06:48:06.789Z,8.27
2024-01-07T06:49:10.290Z,8.28
2024-01-07T06:50:13.292Z,8.28
2024-01-07T06:51:16.497Z,8.28
2024-01-07T06:52:20.431Z,8.28
2024-01-07T06:53:23.135Z,8.28
2024-01-07T06:54:26.566Z,8.29
2024-01-07T06:55:29.292Z,8.30
2024-01-07T06:56:31.950Z,8.30
2024-01-07T06:57:34.732Z,8.31
2024-01-07T06:58:37.463Z,8.31
2024-01-07T06:59:40.213Z,8.31
2024-01-07T07:00:44.110Z,8.31
2024-01-07T07:01:47.128Z,8.32
2024-01-07T07:02:50.359Z,8.32
2024-01-07T07:03:53.479Z,8.32
2024-01-07T07:04:56.295Z,8.33
2024-01-07T07:05:59.134Z,8.34
2024-01-07T07:07:01.877Z,8.34
2024-01-07T07:08:04.817Z,8.34
2024-01-07T07:09:07.526Z,8.34
2024-01-07T07:10:10.366Z,8.34
2024-01-07T07:11:13.217Z,8.34
2024-01-07T07:12:15.932Z,8.34
2024-01-07T07:13:18.728Z,8.35
2024-01-07T07:14:21.610Z,8.35
2024-01-07T07:15:27.836Z,8.35
2024-01-07T07:16:30.575Z,8.35
2024-01-07T07:17:33.265Z,8.35
2024-01-07T07:18:36.332Z,8.36
2024-01-07T07:19:40.874Z,8.36
2024-01-07T07:20:47.512Z,8.37
2024-01-07T07:21:50.326Z,8.37
2024-01-07T07:22:53.252Z,8.38
2024-01-07T07:23:56.085Z,8.39
2024-01-07T07:25:01.835Z,8.39
2024-01-07T07:26:05.247Z,8.39
2024-01-07T07:27:08.146Z,8.39
2024-01-07T07:28:11.000Z,8.40
2024-01-07T07:29:13.820Z,8.40
2024-01-07T07:30:17.518Z,8.40
2024-01-07T07:31:20.291Z,8.40
2024-01-07T07:32:25.144Z,8.41
2024-01-07T07:33:27.975Z,8.42
2024-01-07T07:34:34.093Z,8.43
2024-01-07T07:35:41.157Z,8.43
2024-01-07T07:36:46.240Z,8.43
2024-01-07T07:37:49.131Z,8.44
2024-01-07T07:38:51.827Z,8.44
2024-01-07T07:39:54.603Z,8.45
2024-01-07T07:40:57.432Z,8.45
2024-01-07T07:42:00.795Z,8.46
2024-01-07T07:43:03.837Z,8.47
2024-01-07T07:44:06.635Z,8.47
2024-01-07T07:45:10.036Z,8.48
2024-01-07T07:46:13.260Z,8.48
2024-01-07T07:47:16.026Z,8.49
2024-01-07T07:48:20.011Z,8.49
2024-01-07T07:49:24.664Z,8.50
2024-01-07T07:50:28.630Z,8.51
2024-01-07T07:51:31.422Z,8.52
2024-01-07T07:52:34.303Z,8.52
2024-01-07T07:53:40.918Z,8.52
2024-01-07T07:54:43.665Z,8.53
2024-01-07T07:55:46.408Z,8.53
2024-01-07T07:56:49.280Z,8.53
2024-01-07T07:57:53.076Z,8.54
2024-01-07T07:58:56.046Z,8.54
2024-01-07T08:00:04.609Z,8.54
2024-01-07T08:01:08.183Z,8.55
2024-01-07T08:02:11.522Z,8.54
2024-01-07T08:03:15.771Z,8.55
2024-01-07T08:04:19.310Z,8.56
2024-01-07T08:05:22.282Z,8.55
2024-01-07T08:06:25.037Z,8.56
2024-01-07T08:07:27.682Z,8.56
2024-01-07T08:08:30.348Z,8.56
2024-01-07T08:09:33.101Z,8.56
2024-01-07T08:10:36.487Z,8.56
2024-01-07T08:11:40.687Z,8.57
2024-01-07T08:12:43.572Z,8.57
2024-01-07T08:13:46.235Z,8.58
2024-01-07T08:14:48.944Z,8.58
2024-01-07T08:15:51.866Z,8.58
2024-01-07T08:16:54.661Z,8.58
2024-01-07T08:17:57.424Z,8.59
2024-01-07T08:19:00.921Z,8.60
2024-01-07T08:20:05.259Z,8.60
2024-01-07T08:21:08.026Z,8.60
2024-01-07T08:22:11.050Z,8.61
2024-01-07T08:23:14.104Z,8.61
2024-01-07T08:24:16.937Z,8.62
2024-01-07T08:25:19.932Z,8.62
2024-01-07T08:26:24.198Z,8.63
2024-01-07T08:27:27.971Z,8.63
2024-01-07T08:28:30.703Z,8.63
2024-01-07T08:29:33.367Z,8.63
2024-01-07T08:30:36.213Z,8.63
2024-01-07T08:31:39.032Z,8.63
2024-01-07T08:32:42.186Z,8.64
2024-01-07T08:33:45.128Z,8.64
2024-01-07T08:34:48.009Z,8.64
2024-01-07T08:35:50.881Z,8.65
2024-01-07T08:36:55.194Z,8.65
2024-01-07T08:37:57.871Z,8.66
2024-01-07T08:39:01.495Z,8.66
2024-01-07T08:40:04.561Z,8.66
2024-01-07T08:41:07.753Z,8.66
2024-01-07T08:42:11.977Z,8.66
2024-01-07T08:43:15.645Z,8.66
2024-01-07T08:44:18.381Z,8.66
2024-01-07T08:45:21.148Z,8.66
2024-01-07T08:46:24.047Z,8.66
2024-01-07T08:47:26.965Z,8.66
2024-01-07T08:48:30.265Z,8.66
2024-01-07T08:49:34.999Z,8.66
2024-01-07T08:50:38.034Z,8.67
2024-01-07T08:51:41.127Z,8.67
2024-01-07T08:52:46.277Z,8.68
2024-01-07T08:53:50.674Z,8.68
2024-01-07T08:54:53.521Z,8.68
2024-01-07T08:55:56.313Z,8.68
2024-01-07T08:56:59.019Z,8.68
2024-01-07T08:58:01.826Z,8.68
2024-01-07T08:59:05.589Z,8.69
2024-01-07T09:00:09.222Z,8.69
2024-01-07T09:01:13.300Z,8.69
2024-01-07T09:02:16.554Z,8.69
2024-01-07T09:03:19.855Z,8.69
2024-01-07T09:04:23.352Z,8.69
2024-01-07T09:05:26.106Z,8.69
2024-01-07T09:06:29.049Z,8.69
2024-01-07T09:07:31.871Z,8.69
2024-01-07T09:08:35.519Z,8.70
2024-01-07T09:09:38.805Z,8.70
2024-01-07T09:10:42.013Z,8.70
2024-01-07T09:11:47.036Z,8.70
2024-01-07T09:12:51.168Z,8.70
2024-01-07T09:13:54.415Z,8.70
2024-01-07T09:14:59.826Z,8.70
2024-01-07T09:16:02.715Z,8.70
2024-01-07T09:17:06.176Z,8.71
2024-01-07T09:18:09.389Z,8.71
2024-01-07T09:19:15.755Z,8.70
2024-01-07T09:20:19.005Z,8.70
2024-01-07T09:21:22.067Z,8.70
2024-01-07T09:22:24.817Z,8.70
2024-01-07T09:23:27.559Z,8.70
2024-01-07T09:24:30.796Z,8.70
2024-01-07T09:25:33.572Z,8.70
2024-01-07T09:26:36.288Z,8.70
2024-01-07T09:27:39.052Z,8.69
2024-01-07T09:28:44.923Z,8.69
2024-01-07T09:29:47.660Z,8.68
2024-01-07T09:30:50.502Z,8.68
2024-01-07T09:31:53.358Z,8.67
2024-01-07T09:32:56.220Z,8.67
2024-01-07T09:33:59.136Z,8.66
2024-01-07T09:35:01.978Z,8.66
2024-01-07T09:36:10.883Z,8.65
2024-01-07T09:37:23.557Z,8.65
2024-01-07T09:38:27.039Z,8.65
2024-01-07T09:39:29.964Z,8.64
2024-01-07T09:40:33.087Z,8.64
2024-01-07T09:41:35.841Z,8.64
2024-01-07T09:42:41.390Z,8.63
2024-01-07T09:43:44.289Z,8.63
2024-01-07T09:44:47.302Z,8.63
2024-01-07T09:45:53.228Z,8.63
2024-01-07T09:46:58.343Z,8.63
2024-01-07T09:48:01.417Z,8.61
2024-01-07T09:49:04.596Z,8.60
2024-01-07T09:50:08.179Z,8.60
2024-01-07T09:51:12.597Z,8.59
2024-01-07T09:52:15.503Z,8.58
2024-01-07T09:53:21.606Z,8.57
2024-01-07T09:54:24.559Z,8.55
2024-01-07T09:55:38.773Z,8.55
2024-01-07T09:56:57.017Z,8.54
2024-01-07T09:58:00.202Z,8.53
2024-01-07T09:59:02.944Z,8.54
2024-01-07T10:00:06.329Z,8.54
2024-01-07T10:01:09.584Z,8.54
2024-01-07T10:02:13.085Z,8.53
2024-01-07T10:03:15.971Z,8.53
2024-01-07T10:04:18.923Z,8.53
2024-01-07T10:05:21.899Z,8.52
2024-01-07T10:06:24.758Z,8.52
2024-01-07T10:07:27.976Z,8.52
2024-01-07T10:08:31.205Z,8.51
2024-01-07T10:09:35.234Z,8.51
2024-01-07T10:10:38.702Z,8.51
2024-01-07T10:11:41.576Z,8.51
2024-01-07T10:12:48.079Z,8.51
2024-01-07T10:13:53.092Z,8.51
2024-01-07T10:14:55.978Z,8.51
2024-01-07T10:15:58.726Z,8.51
2024-01-07T10:17:04.082Z,8.51
2024-01-07T10:18:10.996Z,8.51
2024-01-07T10:19:23.459Z,8.51
2024-01-07T10:20:26.440Z,8.52
2024-01-07T10:21:29.156Z,8.51
2024-01-07T10:22:33.017Z,8.51
2024-01-07T10:23:35.851Z,8.51
2024-01-07T10:24:41.363Z,8.52
2024-01-07T10:25:44.364Z,8.52
2024-01-07T10:26:47.096Z,8.51
2024-01-07T10:27:51.045Z,8.52
2024-01-07T10:28:53.854Z,8.52
2024-01-07T10:30:00.022Z,8.52
2024-01-07T10:31:02.942Z,8.52
2024-01-07T10:32:06.562Z,8.52
2024-01-07T10:33:09.538Z,8.51
2024-01-07T10:34:14.621Z,8.51
2024-01-07T10:35:21.167Z,8.51
2024-01-07T10:36:25.695Z,8.51
2024-01-07T10:37:28.858Z,8.51
2024-01-07T10:38:31.718Z,8.52
2024-01-07T10:39:34.598Z,8.52
2024-01-07T10:40:39.732Z,8.52
2024-01-07T10:41:44.794Z,8.52
2024-01-07T10:42:50.684Z,8.52
2024-01-07T10:43:53.748Z,8.52
2024-01-07T10:44:56.595Z,8.52
2024-01-07T10:46:04.492Z,8.52
2024-01-07T10:47:09.116Z,8.51
2024-01-07T10:48:12.750Z,8.51
2024-01-07T10:49:22.994Z,8.51
2024-01-07T10:50:27.911Z,8.52
2024-01-07T10:51:35.626Z,8.51
2024-01-07T10:52:41.558Z,8.51
2024-01-07T10:53:45.907Z,8.51
2024-01-07T10:54:49.567Z,8.51
2024-01-07T10:56:05.019Z,8.51
2024-01-07T10:57:22.809Z,8.52
2024-01-07T10:58:25.834Z,8.52
2024-01-07T10:59:30.448Z,8.51
2024-01-07T11:00:33.799Z,8.51
2024-01-07T11:01:38.636Z,8.51
2024-01-07T11:02:52.587Z,8.51
2024-01-07T11:04:04.461Z,8.51
2024-01-07T11:05:17.557Z,8.51
2024-01-07T11:06:39.840Z,8.51
2024-01-07T11:07:55.068Z,8.50
2024-01-07T11:09:06.967Z,8.49
2024-01-07T11:10:30.318Z,8.50
2024-01-07T11:11:42.600Z,8.49
2024-01-07T11:12:54.214Z,8.49
2024-01-07T11:13:59.335Z,8.49
2024-01-07T11:15:03.661Z,8.49
2024-01-07T11:16:13.762Z,8.48
2024-01-07T11:17:39.360Z,8.48
2024-01-07T11:18:48.115Z,8.47
2024-01-07T11:19:53.510Z,8.47
2024-01-07T11:21:00.576Z,8.47
2024-01-07T11:22:24.300Z,8.47
2024-01-07T11:23:41.332Z,8.47
2024-01-07T11:24:44.329Z,8.47
2024-01-07T11:25:47.220Z,8.46
2024-01-07T11:26:54.306Z,8.46
2024-01-07T11:27:58.673Z,8.46
2024-01-07T11:29:01.881Z,8.45
2024-01-07T11:30:21.905Z,8.45
2024-01-07T11:31:51.979Z,8.44
2024-01-07T11:33:01.771Z,8.43
2024-01-07T11:34:05.087Z,8.43
2024-01-07T11:35:08.721Z,8.42
2024-01-07T11:36:14.045Z,8.42
2024-01-07T11:37:16.887Z,8.42
2024-01-07T11:38:19.635Z,8.41
2024-01-07T11:39:22.529Z,8.40
2024-01-07T11:40:25.320Z,8.40
2024-01-07T11:41:28.612Z,8.40
2024-01-07T11:42:33.279Z,8.40
2024-01-07T11:43:36.053Z,8.39
2024-01-07T11:44:41.468Z,8.39
2024-01-07T11:45:44.214Z,8.39
2024-01-07T11:46:48.544Z,8.39
2024-01-07T11:47:51.288Z,8.39
2024-01-07T11:49:01.054Z,8.39
2024-01-07T11:50:04.306Z,8.39
2024-01-07T11:51:07.171Z,8.39
2024-01-07T11:52:11.921Z,8.38
2024-01-07T11:53:15.109Z,8.38
2024-01-07T11:54:18.940Z,8.39
2024-01-07T11:55:22.764Z,8.38
2024-01-07T11:56:27.368Z,8.38
2024-01-07T11:57:32.043Z,8.38
2024-01-07T11:58:35.233Z,8.38
2024-01-07T11:59:43.328Z,8.36
2024-01-07T12:00:48.114Z,8.35
2024-01-07T12:01:58.552Z,8.35
2024-01-07T12:03:02.678Z,8.35
2024-01-07T12:04:05.643Z,8.35
2024-01-07T12:05:08.627Z,8.35
2024-01-07T12:06:15.181Z,8.34
2024-01-07T12:07:18.588Z,8.34
2024-01-07T12:08:22.016Z,8.34
2024-01-07T12:09:24.785Z,8.33
2024-01-07T12:10:27.591Z,8.33
2024-01-07T12:11:31.029Z,8.32
2024-01-07T12:12:33.807Z,8.32
2024-01-07T12:13:38.128Z,8.32
2024-01-07T12:14:41.894Z,8.31
2024-01-07T12:15:45.541Z,8.30
2024-01-07T12:16:48.331Z,8.29
2024-01-07T12:18:03.097Z,8.29
2024-01-07T12:19:06.498Z,8.28
2024-01-07T12:20:10.487Z,8.29
2024-01-07T12:21:21.597Z,8.28
2024-01-07T12:22:24.440Z,8.27
2024-01-07T12:23:27.874Z,8.26
2024-01-07T12:24:30.656Z,8.26
2024-01-07T12:25:36.008Z,8.25
2024-01-07T12:26:38.863Z,8.25
2024-01-07T12:27:42.454Z,8.25
2024-01-07T12:28:45.326Z,8.24
2024-01-07T12:29:58.456Z,8.23
2024-01-07T12:31:02.861Z,8.22
2024-01-07T12:32:06.995Z,8.22
2024-01-07T12:33:09.870Z,8.22
2024-01-07T12:34:13.550Z,8.21
2024-01-07T12:35:17.775Z,8.21
2024-01-07T12:36:24.170Z,8.21
2024-01-07T12:37:30.162Z,8.21
2024-01-07T12:38:32.981Z,8.21
2024-01-07T12:39:35.823Z,8.20
2024-01-07T12:40:38.589Z,8.20
2024-01-07T12:41:41.297Z,8.21
2024-01-07T12:42:47.114Z,8.20
2024-01-07T12:43:51.276Z,8.19
2024-01-07T12:44:53.958Z,8.19
2024-01-07T12:45:58.082Z,8.18
2024-01-07T12:47:00.825Z,8.18
2024-01-07T12:48:04.341Z,8.18
2024-01-07T12:49:07.307Z,8.17
2024-01-07T12:50:13.111Z,8.17
2024-01-07T12:51:15.908Z,8.16
2024-01-07T12:52:18.763Z,8.16
2024-01-07T12:53:21.492Z,8.16
2024-01-07T12:54:25.867Z,8.17
2024-01-07T12:55:28.783Z,8.17
2024-01-07T12:56:32.376Z,8.17
2024-01-07T12:57:36.005Z,8.16
2024-01-07T12:58:38.883Z,8.16
2024-01-07T12:59:43.581Z,8.16
2024-01-07T13:00:46.351Z,8.16
2024-01-07T13:01:49.346Z,8.16
2024-01-07T13:02:52.515Z,8.16
2024-01-07T13:03:55.358Z,8.17
2024-01-07T13:04:58.408Z,8.17
2024-01-07T13:06:02.541Z,8.17
2024-01-07T13:07:05.649Z,8.16
2024-01-07T13:08:08.732Z,8.17
2024-01-07T13:09:12.460Z,8.16
2024-01-07T13:10:15.813Z,8.16
2024-01-07T13:11:19.155Z,8.16
2024-01-07T13:12:23.162Z,8.16
2024-01-07T13:13:27.302Z,8.16
2024-01-07T13:14:32.609Z,8.16
2024-01-07T13:15:35.642Z,8.15
2024-01-07T13:16:38.780Z,8.14
2024-01-07T13:17:41.853Z,8.14
2024-01-07T13:18:44.720Z,8.14
2024-01-07T13:19:49.738Z,8.14
2024-01-07T13:20:53.023Z,8.13
2024-01-07T13:22:00.705Z,8.12
2024-01-07T13:23:05.614Z,8.12
2024-01-07T13:24:08.474Z,8.11
2024-01-07T13:25:13.924Z,8.10
2024-01-07T13:26:17.588Z,8.10
2024-01-07T13:27:20.862Z,8.10
2024-01-07T13:28:27.142Z,8.10
2024-01-07T13:29:30.219Z,8.09
2024-01-07T13:30:33.575Z,8.09
2024-01-07T13:31:37.067Z,8.09
2024-01-07T13:32:43.381Z,8.09
2024-01-07T13:33:46.454Z,8.09
2024-01-07T13:34:49.580Z,8.10
2024-01-07T13:35:52.747Z,8.10
2024-01-07T13:36:57.038Z,8.10
2024-01-07T13:37:59.936Z,8.10
2024-01-07T13:39:03.250Z,8.11
2024-01-07T13:40:08.928Z,8.11
2024-01-07T13:41:15.339Z,8.10
2024-01-07T13:42:18.135Z,8.11
2024-01-07T13:43:21.125Z,8.11
2024-01-07T13:44:23.869Z,8.11
2024-01-07T13:45:26.789Z,8.12
2024-01-07T13:46:31.345Z,8.12
2024-01-07T13:47:36.780Z,8.12
2024-01-07T13:48:42.964Z,8.12
2024-01-07T13:49:49.060Z,8.12
2024-01-07T13:50:52.590Z,8.12
2024-01-07T13:51:56.574Z,8.12
2024-01-07T13:53:01.605Z,8.13
2024-01-07T13:54:05.253Z,8.13
2024-01-07T13:55:11.022Z,8.13
2024-01-07T13:56:14.551Z,8.14
2024-01-07T13:57:17.645Z,8.14
2024-01-07T13:58:21.406Z,8.14
2024-01-07T13:59:24.520Z,8.15
2024-01-07T14:00:27.412Z,8.15
2024-01-07T14:01:31.787Z,8.15
2024-01-07T14:02:35.345Z,8.16
2024-01-07T14:03:38.527Z,8.16
2024-01-07T14:04:41.282Z,8.16
2024-01-07T14:05:44.253Z,8.17
2024-01-07T14:06:48.009Z,8.17
2024-01-07T14:07:50.912Z,8.17
2024-01-07T14:08:55.691Z,8.17
2024-01-07T14:09:59.439Z,8.17
2024-01-07T14:11:04.332Z,8.18